<?xml version="1.0" encoding="UTF-8" standalone="no" ?>
<gpx xmlns="http://www.topografix.com/GPX/1/1" xmlns:xsi="http://www.w3.org/2001/XMLSchema-instance" xsi:schemaLocation="http://www.topografix.com/GPX/1/1 http://www.topografix.com/GPX/1/1/gpx.xsd" version="1.1" creator="VisuGPX - https://www.visugpx.com">
  <metadata>
    <name>VTT Sud Bourgogne</name>
    <desc><![CDATA[Cluny - Tournus : circuits VTT XC]]></desc>
  </metadata>
  <trk>
    <name><![CDATA[12 - ROULER_POUR_VISITER_LE_MACONNAIS - Bleu]]></name>
    <extensions>
      <line xmlns="http://www.topografix.com/GPX/gpx_style/0/2">
        <color>00eb85</color>
        <width>4</width>
      </line>
    </extensions>
    <trkseg>
      <trkpt lat="46.43107" lon="4.76182">
        <ele>244</ele>
        <time>2020-09-22T10:08:03Z</time>
      </trkpt>
      <trkpt lat="46.43112" lon="4.76234">
        <ele>240</ele>
        <time>2020-09-22T10:08:11Z</time>
      </trkpt>
      <trkpt lat="46.43111" lon="4.76265">
        <ele>239</ele>
        <time>2020-09-22T10:08:16Z</time>
      </trkpt>
      <trkpt lat="46.43103" lon="4.7628">
        <ele>238</ele>
        <time>2020-09-22T10:08:19Z</time>
      </trkpt>
      <trkpt lat="46.43075" lon="4.76297">
        <ele>237</ele>
        <time>2020-09-22T10:08:27Z</time>
      </trkpt>
      <trkpt lat="46.43057" lon="4.76304">
        <ele>237</ele>
        <time>2020-09-22T10:08:31Z</time>
      </trkpt>
      <trkpt lat="46.43034" lon="4.76337">
        <ele>236</ele>
        <time>2020-09-22T10:08:38Z</time>
      </trkpt>
      <trkpt lat="46.43026" lon="4.76366">
        <ele>237</ele>
        <time>2020-09-22T10:08:44Z</time>
      </trkpt>
      <trkpt lat="46.43021" lon="4.76455">
        <ele>240</ele>
        <time>2020-09-22T10:08:58Z</time>
      </trkpt>
      <trkpt lat="46.43016" lon="4.76479">
        <ele>242</ele>
        <time>2020-09-22T10:09:02Z</time>
      </trkpt>
      <trkpt lat="46.43007" lon="4.76509">
        <ele>243</ele>
        <time>2020-09-22T10:09:07Z</time>
      </trkpt>
      <trkpt lat="46.4299" lon="4.76538">
        <ele>245</ele>
        <time>2020-09-22T10:09:13Z</time>
      </trkpt>
      <trkpt lat="46.42978" lon="4.76544">
        <ele>246</ele>
        <time>2020-09-22T10:09:16Z</time>
      </trkpt>
      <trkpt lat="46.42879" lon="4.76574">
        <ele>247</ele>
        <time>2020-09-22T10:09:40Z</time>
      </trkpt>
      <trkpt lat="46.42856" lon="4.76575">
        <ele>247</ele>
        <time>2020-09-22T10:09:45Z</time>
      </trkpt>
      <trkpt lat="46.42742" lon="4.7657">
        <ele>246</ele>
        <time>2020-09-22T10:10:12Z</time>
      </trkpt>
      <trkpt lat="46.42727" lon="4.76571">
        <ele>246</ele>
        <time>2020-09-22T10:10:15Z</time>
      </trkpt>
      <trkpt lat="46.42716" lon="4.76575">
        <ele>246</ele>
        <time>2020-09-22T10:10:18Z</time>
      </trkpt>
      <trkpt lat="46.42671" lon="4.76609">
        <ele>248</ele>
        <time>2020-09-22T10:10:30Z</time>
      </trkpt>
      <trkpt lat="46.42646" lon="4.76619">
        <ele>248</ele>
        <time>2020-09-22T10:10:36Z</time>
      </trkpt>
      <trkpt lat="46.42623" lon="4.76632">
        <ele>248</ele>
        <time>2020-09-22T10:10:42Z</time>
      </trkpt>
      <trkpt lat="46.42582" lon="4.76665">
        <ele>249</ele>
        <time>2020-09-22T10:10:53Z</time>
      </trkpt>
      <trkpt lat="46.4256" lon="4.76679">
        <ele>248</ele>
        <time>2020-09-22T10:10:58Z</time>
      </trkpt>
      <trkpt lat="46.4248" lon="4.7672">
        <ele>246</ele>
        <time>2020-09-22T10:11:18Z</time>
      </trkpt>
      <trkpt lat="46.42349" lon="4.76782">
        <ele>245</ele>
        <time>2020-09-22T10:11:50Z</time>
      </trkpt>
      <trkpt lat="46.42284" lon="4.76821">
        <ele>241</ele>
        <time>2020-09-22T10:12:07Z</time>
      </trkpt>
      <trkpt lat="46.42266" lon="4.76824">
        <ele>240</ele>
        <time>2020-09-22T10:12:11Z</time>
      </trkpt>
      <trkpt lat="46.42255" lon="4.76823">
        <ele>239</ele>
        <time>2020-09-22T10:12:14Z</time>
      </trkpt>
      <trkpt lat="46.4219" lon="4.76798">
        <ele>234</ele>
        <time>2020-09-22T10:12:29Z</time>
      </trkpt>
      <trkpt lat="46.42182" lon="4.76814">
        <ele>234</ele>
        <time>2020-09-22T10:12:32Z</time>
      </trkpt>
      <trkpt lat="46.42069" lon="4.76761">
        <ele>226</ele>
        <time>2020-09-22T10:13:00Z</time>
      </trkpt>
      <trkpt lat="46.42048" lon="4.76754">
        <ele>225</ele>
        <time>2020-09-22T10:13:05Z</time>
      </trkpt>
      <trkpt lat="46.42049" lon="4.76731">
        <ele>225</ele>
        <time>2020-09-22T10:13:09Z</time>
      </trkpt>
      <trkpt lat="46.42055" lon="4.76707">
        <ele>226</ele>
        <time>2020-09-22T10:13:13Z</time>
      </trkpt>
      <trkpt lat="46.42072" lon="4.76658">
        <ele>226</ele>
        <time>2020-09-22T10:13:22Z</time>
      </trkpt>
      <trkpt lat="46.42094" lon="4.76624">
        <ele>226</ele>
        <time>2020-09-22T10:13:29Z</time>
      </trkpt>
      <trkpt lat="46.42114" lon="4.76582">
        <ele>225</ele>
        <time>2020-09-22T10:13:38Z</time>
      </trkpt>
      <trkpt lat="46.4213" lon="4.76517">
        <ele>226</ele>
        <time>2020-09-22T10:13:49Z</time>
      </trkpt>
      <trkpt lat="46.42128" lon="4.76489">
        <ele>226</ele>
        <time>2020-09-22T10:13:53Z</time>
      </trkpt>
      <trkpt lat="46.42119" lon="4.76463">
        <ele>228</ele>
        <time>2020-09-22T10:13:58Z</time>
      </trkpt>
      <trkpt lat="46.42113" lon="4.76453">
        <ele>229</ele>
        <time>2020-09-22T10:14:00Z</time>
      </trkpt>
      <trkpt lat="46.42075" lon="4.76413">
        <ele>234</ele>
        <time>2020-09-22T10:14:11Z</time>
      </trkpt>
      <trkpt lat="46.42069" lon="4.764">
        <ele>234</ele>
        <time>2020-09-22T10:14:13Z</time>
      </trkpt>
      <trkpt lat="46.42066" lon="4.76382">
        <ele>234</ele>
        <time>2020-09-22T10:14:16Z</time>
      </trkpt>
      <trkpt lat="46.42064" lon="4.76352">
        <ele>234</ele>
        <time>2020-09-22T10:14:21Z</time>
      </trkpt>
      <trkpt lat="46.42086" lon="4.76218">
        <ele>230</ele>
        <time>2020-09-22T10:14:44Z</time>
      </trkpt>
      <trkpt lat="46.4211" lon="4.76175">
        <ele>230</ele>
        <time>2020-09-22T10:14:52Z</time>
      </trkpt>
      <trkpt lat="46.42119" lon="4.76152">
        <ele>231</ele>
        <time>2020-09-22T10:14:57Z</time>
      </trkpt>
      <trkpt lat="46.42128" lon="4.76078">
        <ele>231</ele>
        <time>2020-09-22T10:15:09Z</time>
      </trkpt>
      <trkpt lat="46.42147" lon="4.75993">
        <ele>232</ele>
        <time>2020-09-22T10:15:23Z</time>
      </trkpt>
      <trkpt lat="46.42151" lon="4.75959">
        <ele>232</ele>
        <time>2020-09-22T10:15:29Z</time>
      </trkpt>
      <trkpt lat="46.42154" lon="4.75845">
        <ele>231</ele>
        <time>2020-09-22T10:15:47Z</time>
      </trkpt>
      <trkpt lat="46.42163" lon="4.75807">
        <ele>231</ele>
        <time>2020-09-22T10:15:54Z</time>
      </trkpt>
      <trkpt lat="46.42175" lon="4.75781">
        <ele>231</ele>
        <time>2020-09-22T10:15:59Z</time>
      </trkpt>
      <trkpt lat="46.42219" lon="4.75719">
        <ele>232</ele>
        <time>2020-09-22T10:16:13Z</time>
      </trkpt>
      <trkpt lat="46.4223" lon="4.75698">
        <ele>232</ele>
        <time>2020-09-22T10:16:17Z</time>
      </trkpt>
      <trkpt lat="46.42264" lon="4.756">
        <ele>233</ele>
        <time>2020-09-22T10:16:35Z</time>
      </trkpt>
      <trkpt lat="46.42269" lon="4.75568">
        <ele>234</ele>
        <time>2020-09-22T10:16:40Z</time>
      </trkpt>
      <trkpt lat="46.42289" lon="4.7535">
        <ele>244</ele>
        <time>2020-09-22T10:17:15Z</time>
      </trkpt>
      <trkpt lat="46.42286" lon="4.75322">
        <ele>245</ele>
        <time>2020-09-22T10:17:20Z</time>
      </trkpt>
      <trkpt lat="46.42271" lon="4.753">
        <ele>245</ele>
        <time>2020-09-22T10:17:25Z</time>
      </trkpt>
      <trkpt lat="46.42276" lon="4.75299">
        <ele>245</ele>
        <time>2020-09-22T10:17:26Z</time>
      </trkpt>
      <trkpt lat="46.4202" lon="4.75334">
        <ele>238</ele>
        <time>2020-09-22T10:18:26Z</time>
      </trkpt>
      <trkpt lat="46.42002" lon="4.75346">
        <ele>238</ele>
        <time>2020-09-22T10:18:31Z</time>
      </trkpt>
      <trkpt lat="46.41986" lon="4.75365">
        <ele>237</ele>
        <time>2020-09-22T10:18:36Z</time>
      </trkpt>
      <trkpt lat="46.41973" lon="4.75395">
        <ele>237</ele>
        <time>2020-09-22T10:18:41Z</time>
      </trkpt>
      <trkpt lat="46.41941" lon="4.75437">
        <ele>236</ele>
        <time>2020-09-22T10:18:51Z</time>
      </trkpt>
      <trkpt lat="46.41852" lon="4.7561">
        <ele>234</ele>
        <time>2020-09-22T10:19:26Z</time>
      </trkpt>
      <trkpt lat="46.41846" lon="4.75624">
        <ele>234</ele>
        <time>2020-09-22T10:19:29Z</time>
      </trkpt>
      <trkpt lat="46.4183" lon="4.75683">
        <ele>235</ele>
        <time>2020-09-22T10:19:39Z</time>
      </trkpt>
      <trkpt lat="46.41796" lon="4.7576">
        <ele>237</ele>
        <time>2020-09-22T10:19:54Z</time>
      </trkpt>
      <trkpt lat="46.41793" lon="4.75786">
        <ele>238</ele>
        <time>2020-09-22T10:19:58Z</time>
      </trkpt>
      <trkpt lat="46.41779" lon="4.75852">
        <ele>239</ele>
        <time>2020-09-22T10:20:09Z</time>
      </trkpt>
      <trkpt lat="46.41755" lon="4.75941">
        <ele>242</ele>
        <time>2020-09-22T10:20:25Z</time>
      </trkpt>
      <trkpt lat="46.41744" lon="4.75969">
        <ele>243</ele>
        <time>2020-09-22T10:20:30Z</time>
      </trkpt>
      <trkpt lat="46.4172" lon="4.76028">
        <ele>246</ele>
        <time>2020-09-22T10:20:41Z</time>
      </trkpt>
      <trkpt lat="46.4171" lon="4.76048">
        <ele>247</ele>
        <time>2020-09-22T10:20:45Z</time>
      </trkpt>
      <trkpt lat="46.41668" lon="4.76114">
        <ele>251</ele>
        <time>2020-09-22T10:20:59Z</time>
      </trkpt>
      <trkpt lat="46.41655" lon="4.7614">
        <ele>251</ele>
        <time>2020-09-22T10:21:04Z</time>
      </trkpt>
      <trkpt lat="46.41648" lon="4.76162">
        <ele>252</ele>
        <time>2020-09-22T10:21:08Z</time>
      </trkpt>
      <trkpt lat="46.41616" lon="4.76233">
        <ele>253</ele>
        <time>2020-09-22T10:21:22Z</time>
      </trkpt>
      <trkpt lat="46.41572" lon="4.76315">
        <ele>256</ele>
        <time>2020-09-22T10:21:39Z</time>
      </trkpt>
      <trkpt lat="46.41527" lon="4.76478">
        <ele>254</ele>
        <time>2020-09-22T10:22:07Z</time>
      </trkpt>
      <trkpt lat="46.41475" lon="4.76614">
        <ele>254</ele>
        <time>2020-09-22T10:22:32Z</time>
      </trkpt>
      <trkpt lat="46.41479" lon="4.76654">
        <ele>255</ele>
        <time>2020-09-22T10:22:39Z</time>
      </trkpt>
      <trkpt lat="46.41467" lon="4.76698">
        <ele>255</ele>
        <time>2020-09-22T10:22:46Z</time>
      </trkpt>
      <trkpt lat="46.41431" lon="4.76806">
        <ele>254</ele>
        <time>2020-09-22T10:23:05Z</time>
      </trkpt>
      <trkpt lat="46.41415" lon="4.76864">
        <ele>254</ele>
        <time>2020-09-22T10:23:16Z</time>
      </trkpt>
      <trkpt lat="46.41405" lon="4.76882">
        <ele>255</ele>
        <time>2020-09-22T10:23:19Z</time>
      </trkpt>
      <trkpt lat="46.41369" lon="4.76965">
        <ele>254</ele>
        <time>2020-09-22T10:23:35Z</time>
      </trkpt>
      <trkpt lat="46.41346" lon="4.7705">
        <ele>251</ele>
        <time>2020-09-22T10:23:50Z</time>
      </trkpt>
      <trkpt lat="46.41329" lon="4.77147">
        <ele>248</ele>
        <time>2020-09-22T10:24:06Z</time>
      </trkpt>
      <trkpt lat="46.41319" lon="4.77185">
        <ele>247</ele>
        <time>2020-09-22T10:24:12Z</time>
      </trkpt>
      <trkpt lat="46.41267" lon="4.7731">
        <ele>246</ele>
        <time>2020-09-22T10:24:36Z</time>
      </trkpt>
      <trkpt lat="46.41203" lon="4.77515">
        <ele>241</ele>
        <time>2020-09-22T10:25:12Z</time>
      </trkpt>
      <trkpt lat="46.41193" lon="4.77553">
        <ele>239</ele>
        <time>2020-09-22T10:25:19Z</time>
      </trkpt>
      <trkpt lat="46.41179" lon="4.77626">
        <ele>238</ele>
        <time>2020-09-22T10:25:31Z</time>
      </trkpt>
      <trkpt lat="46.41167" lon="4.7766">
        <ele>237</ele>
        <time>2020-09-22T10:25:37Z</time>
      </trkpt>
      <trkpt lat="46.41121" lon="4.77838">
        <ele>233</ele>
        <time>2020-09-22T10:26:08Z</time>
      </trkpt>
      <trkpt lat="46.4111" lon="4.77988">
        <ele>226</ele>
        <time>2020-09-22T10:26:32Z</time>
      </trkpt>
      <trkpt lat="46.41116" lon="4.78112">
        <ele>219</ele>
        <time>2020-09-22T10:26:52Z</time>
      </trkpt>
      <trkpt lat="46.41122" lon="4.78137">
        <ele>217</ele>
        <time>2020-09-22T10:26:56Z</time>
      </trkpt>
      <trkpt lat="46.41138" lon="4.78184">
        <ele>214</ele>
        <time>2020-09-22T10:27:05Z</time>
      </trkpt>
      <trkpt lat="46.4114" lon="4.78208">
        <ele>213</ele>
        <time>2020-09-22T10:27:09Z</time>
      </trkpt>
      <trkpt lat="46.41114" lon="4.78321">
        <ele>212</ele>
        <time>2020-09-22T10:27:28Z</time>
      </trkpt>
      <trkpt lat="46.41106" lon="4.78369">
        <ele>211</ele>
        <time>2020-09-22T10:27:36Z</time>
      </trkpt>
      <trkpt lat="46.41103" lon="4.78406">
        <ele>210</ele>
        <time>2020-09-22T10:27:42Z</time>
      </trkpt>
      <trkpt lat="46.41122" lon="4.78424">
        <ele>209</ele>
        <time>2020-09-22T10:27:47Z</time>
      </trkpt>
      <trkpt lat="46.41205" lon="4.78516">
        <ele>210</ele>
        <time>2020-09-22T10:28:11Z</time>
      </trkpt>
      <trkpt lat="46.41222" lon="4.78539">
        <ele>211</ele>
        <time>2020-09-22T10:28:17Z</time>
      </trkpt>
      <trkpt lat="46.41267" lon="4.78574">
        <ele>214</ele>
        <time>2020-09-22T10:28:29Z</time>
      </trkpt>
      <trkpt lat="46.41323" lon="4.78613">
        <ele>217</ele>
        <time>2020-09-22T10:28:43Z</time>
      </trkpt>
      <trkpt lat="46.41339" lon="4.78645">
        <ele>218</ele>
        <time>2020-09-22T10:28:50Z</time>
      </trkpt>
      <trkpt lat="46.41413" lon="4.78761">
        <ele>219</ele>
        <time>2020-09-22T10:29:15Z</time>
      </trkpt>
      <trkpt lat="46.41427" lon="4.78799">
        <ele>220</ele>
        <time>2020-09-22T10:29:22Z</time>
      </trkpt>
      <trkpt lat="46.41442" lon="4.78863">
        <ele>219</ele>
        <time>2020-09-22T10:29:33Z</time>
      </trkpt>
      <trkpt lat="46.41449" lon="4.78976">
        <ele>219</ele>
        <time>2020-09-22T10:29:51Z</time>
      </trkpt>
      <trkpt lat="46.41467" lon="4.79175">
        <ele>218</ele>
        <time>2020-09-22T10:30:23Z</time>
      </trkpt>
      <trkpt lat="46.41467" lon="4.79209">
        <ele>218</ele>
        <time>2020-09-22T10:30:29Z</time>
      </trkpt>
      <trkpt lat="46.41463" lon="4.79257">
        <ele>218</ele>
        <time>2020-09-22T10:30:37Z</time>
      </trkpt>
      <trkpt lat="46.41471" lon="4.79268">
        <ele>218</ele>
        <time>2020-09-22T10:30:39Z</time>
      </trkpt>
      <trkpt lat="46.415" lon="4.79284">
        <ele>219</ele>
        <time>2020-09-22T10:30:46Z</time>
      </trkpt>
      <trkpt lat="46.41521" lon="4.79291">
        <ele>219</ele>
        <time>2020-09-22T10:30:52Z</time>
      </trkpt>
      <trkpt lat="46.41532" lon="4.79291">
        <ele>220</ele>
        <time>2020-09-22T10:30:54Z</time>
      </trkpt>
      <trkpt lat="46.41544" lon="4.79285">
        <ele>220</ele>
        <time>2020-09-22T10:30:57Z</time>
      </trkpt>
      <trkpt lat="46.41575" lon="4.79258">
        <ele>222</ele>
        <time>2020-09-22T10:31:06Z</time>
      </trkpt>
      <trkpt lat="46.41578" lon="4.79253">
        <ele>222</ele>
        <time>2020-09-22T10:31:07Z</time>
      </trkpt>
      <trkpt lat="46.41627" lon="4.79029">
        <ele>222</ele>
        <time>2020-09-22T10:31:44Z</time>
      </trkpt>
      <trkpt lat="46.41812" lon="4.79141">
        <ele>227</ele>
        <time>2020-09-22T10:32:31Z</time>
      </trkpt>
      <trkpt lat="46.41862" lon="4.7918">
        <ele>230</ele>
        <time>2020-09-22T10:32:44Z</time>
      </trkpt>
      <trkpt lat="46.41878" lon="4.79189">
        <ele>231</ele>
        <time>2020-09-22T10:32:48Z</time>
      </trkpt>
      <trkpt lat="46.41942" lon="4.79211">
        <ele>231</ele>
        <time>2020-09-22T10:33:04Z</time>
      </trkpt>
      <trkpt lat="46.41998" lon="4.79237">
        <ele>228</ele>
        <time>2020-09-22T10:33:18Z</time>
      </trkpt>
      <trkpt lat="46.42046" lon="4.79238">
        <ele>227</ele>
        <time>2020-09-22T10:33:29Z</time>
      </trkpt>
      <trkpt lat="46.42049" lon="4.79265">
        <ele>227</ele>
        <time>2020-09-22T10:33:33Z</time>
      </trkpt>
      <trkpt lat="46.42054" lon="4.79417">
        <ele>223</ele>
        <time>2020-09-22T10:33:58Z</time>
      </trkpt>
      <trkpt lat="46.42067" lon="4.79548">
        <ele>223</ele>
        <time>2020-09-22T10:34:19Z</time>
      </trkpt>
      <trkpt lat="46.42066" lon="4.79572">
        <ele>224</ele>
        <time>2020-09-22T10:34:23Z</time>
      </trkpt>
      <trkpt lat="46.42055" lon="4.79664">
        <ele>228</ele>
        <time>2020-09-22T10:34:38Z</time>
      </trkpt>
      <trkpt lat="46.42051" lon="4.7974">
        <ele>232</ele>
        <time>2020-09-22T10:34:50Z</time>
      </trkpt>
      <trkpt lat="46.42021" lon="4.79922">
        <ele>243</ele>
        <time>2020-09-22T10:35:20Z</time>
      </trkpt>
      <trkpt lat="46.42011" lon="4.80009">
        <ele>246</ele>
        <time>2020-09-22T10:35:34Z</time>
      </trkpt>
      <trkpt lat="46.42009" lon="4.80041">
        <ele>245</ele>
        <time>2020-09-22T10:35:40Z</time>
      </trkpt>
      <trkpt lat="46.4201" lon="4.80208">
        <ele>240</ele>
        <time>2020-09-22T10:36:07Z</time>
      </trkpt>
      <trkpt lat="46.42005" lon="4.80285">
        <ele>237</ele>
        <time>2020-09-22T10:36:19Z</time>
      </trkpt>
      <trkpt lat="46.41994" lon="4.80376">
        <ele>233</ele>
        <time>2020-09-22T10:36:34Z</time>
      </trkpt>
      <trkpt lat="46.41955" lon="4.80647">
        <ele>223</ele>
        <time>2020-09-22T10:37:18Z</time>
      </trkpt>
      <trkpt lat="46.41938" lon="4.80729">
        <ele>222</ele>
        <time>2020-09-22T10:37:32Z</time>
      </trkpt>
      <trkpt lat="46.41895" lon="4.80867">
        <ele>216</ele>
        <time>2020-09-22T10:37:57Z</time>
      </trkpt>
      <trkpt lat="46.41882" lon="4.80924">
        <ele>214</ele>
        <time>2020-09-22T10:38:06Z</time>
      </trkpt>
      <trkpt lat="46.4186" lon="4.80988">
        <ele>216</ele>
        <time>2020-09-22T10:38:18Z</time>
      </trkpt>
      <trkpt lat="46.41846" lon="4.81054">
        <ele>221</ele>
        <time>2020-09-22T10:38:29Z</time>
      </trkpt>
      <trkpt lat="46.41841" lon="4.8107">
        <ele>222</ele>
        <time>2020-09-22T10:38:32Z</time>
      </trkpt>
      <trkpt lat="46.41815" lon="4.811">
        <ele>227</ele>
        <time>2020-09-22T10:38:40Z</time>
      </trkpt>
      <trkpt lat="46.41813" lon="4.81119">
        <ele>229</ele>
        <time>2020-09-22T10:38:43Z</time>
      </trkpt>
      <trkpt lat="46.41829" lon="4.81161">
        <ele>230</ele>
        <time>2020-09-22T10:38:50Z</time>
      </trkpt>
      <trkpt lat="46.41791" lon="4.81153">
        <ele>235</ele>
        <time>2020-09-22T10:38:59Z</time>
      </trkpt>
      <trkpt lat="46.41778" lon="4.81141">
        <ele>236</ele>
        <time>2020-09-22T10:39:03Z</time>
      </trkpt>
      <trkpt lat="46.41768" lon="4.81128">
        <ele>236</ele>
        <time>2020-09-22T10:39:06Z</time>
      </trkpt>
      <trkpt lat="46.41762" lon="4.81114">
        <ele>236</ele>
        <time>2020-09-22T10:39:09Z</time>
      </trkpt>
      <trkpt lat="46.41754" lon="4.81105">
        <ele>236</ele>
        <time>2020-09-22T10:39:11Z</time>
      </trkpt>
      <trkpt lat="46.41745" lon="4.81109">
        <ele>238</ele>
        <time>2020-09-22T10:39:13Z</time>
      </trkpt>
      <trkpt lat="46.41703" lon="4.81167">
        <ele>247</ele>
        <time>2020-09-22T10:39:27Z</time>
      </trkpt>
      <trkpt lat="46.41699" lon="4.81189">
        <ele>249</ele>
        <time>2020-09-22T10:39:30Z</time>
      </trkpt>
      <trkpt lat="46.4167" lon="4.81266">
        <ele>255</ele>
        <time>2020-09-22T10:39:45Z</time>
      </trkpt>
      <trkpt lat="46.41628" lon="4.81391">
        <ele>259</ele>
        <time>2020-09-22T10:40:07Z</time>
      </trkpt>
      <trkpt lat="46.41618" lon="4.81404">
        <ele>258</ele>
        <time>2020-09-22T10:40:10Z</time>
      </trkpt>
      <trkpt lat="46.41687" lon="4.8143">
        <ele>261</ele>
        <time>2020-09-22T10:40:27Z</time>
      </trkpt>
      <trkpt lat="46.41714" lon="4.81451">
        <ele>261</ele>
        <time>2020-09-22T10:40:34Z</time>
      </trkpt>
      <trkpt lat="46.41742" lon="4.81465">
        <ele>262</ele>
        <time>2020-09-22T10:40:41Z</time>
      </trkpt>
      <trkpt lat="46.41763" lon="4.81469">
        <ele>262</ele>
        <time>2020-09-22T10:40:46Z</time>
      </trkpt>
      <trkpt lat="46.41793" lon="4.81471">
        <ele>260</ele>
        <time>2020-09-22T10:40:53Z</time>
      </trkpt>
      <trkpt lat="46.41796" lon="4.81496">
        <ele>261</ele>
        <time>2020-09-22T10:40:57Z</time>
      </trkpt>
      <trkpt lat="46.41788" lon="4.81536">
        <ele>262</ele>
        <time>2020-09-22T10:41:04Z</time>
      </trkpt>
      <trkpt lat="46.4178" lon="4.81563">
        <ele>263</ele>
        <time>2020-09-22T10:41:08Z</time>
      </trkpt>
      <trkpt lat="46.41768" lon="4.81588">
        <ele>263</ele>
        <time>2020-09-22T10:41:13Z</time>
      </trkpt>
      <trkpt lat="46.41726" lon="4.81727">
        <ele>261</ele>
        <time>2020-09-22T10:41:38Z</time>
      </trkpt>
      <trkpt lat="46.4172" lon="4.81751">
        <ele>260</ele>
        <time>2020-09-22T10:41:42Z</time>
      </trkpt>
      <trkpt lat="46.4172" lon="4.81789">
        <ele>259</ele>
        <time>2020-09-22T10:41:48Z</time>
      </trkpt>
      <trkpt lat="46.4166" lon="4.81939">
        <ele>248</ele>
        <time>2020-09-22T10:42:16Z</time>
      </trkpt>
      <trkpt lat="46.41566" lon="4.82217">
        <ele>251</ele>
        <time>2020-09-22T10:43:06Z</time>
      </trkpt>
      <trkpt lat="46.41631" lon="4.8225">
        <ele>255</ele>
        <time>2020-09-22T10:43:22Z</time>
      </trkpt>
      <trkpt lat="46.41655" lon="4.82256">
        <ele>256</ele>
        <time>2020-09-22T10:43:27Z</time>
      </trkpt>
      <trkpt lat="46.4168" lon="4.82267">
        <ele>257</ele>
        <time>2020-09-22T10:43:34Z</time>
      </trkpt>
      <trkpt lat="46.41672" lon="4.82315">
        <ele>258</ele>
        <time>2020-09-22T10:43:41Z</time>
      </trkpt>
      <trkpt lat="46.41648" lon="4.82395">
        <ele>255</ele>
        <time>2020-09-22T10:43:56Z</time>
      </trkpt>
      <trkpt lat="46.41566" lon="4.82605">
        <ele>240</ele>
        <time>2020-09-22T10:44:34Z</time>
      </trkpt>
      <trkpt lat="46.4154" lon="4.82666">
        <ele>235</ele>
        <time>2020-09-22T10:44:46Z</time>
      </trkpt>
      <trkpt lat="46.41571" lon="4.82694">
        <ele>235</ele>
        <time>2020-09-22T10:44:54Z</time>
      </trkpt>
      <trkpt lat="46.4167" lon="4.82774">
        <ele>234</ele>
        <time>2020-09-22T10:45:21Z</time>
      </trkpt>
      <trkpt lat="46.41674" lon="4.8278">
        <ele>234</ele>
        <time>2020-09-22T10:45:22Z</time>
      </trkpt>
      <trkpt lat="46.41684" lon="4.82812">
        <ele>233</ele>
        <time>2020-09-22T10:45:28Z</time>
      </trkpt>
      <trkpt lat="46.417" lon="4.82829">
        <ele>233</ele>
        <time>2020-09-22T10:45:33Z</time>
      </trkpt>
      <trkpt lat="46.41729" lon="4.82848">
        <ele>234</ele>
        <time>2020-09-22T10:45:40Z</time>
      </trkpt>
      <trkpt lat="46.4186" lon="4.82947">
        <ele>236</ele>
        <time>2020-09-22T10:46:14Z</time>
      </trkpt>
      <trkpt lat="46.41945" lon="4.83041">
        <ele>236</ele>
        <time>2020-09-22T10:46:39Z</time>
      </trkpt>
      <trkpt lat="46.41983" lon="4.83078">
        <ele>236</ele>
        <time>2020-09-22T10:46:50Z</time>
      </trkpt>
      <trkpt lat="46.42053" lon="4.83166">
        <ele>234</ele>
        <time>2020-09-22T10:47:12Z</time>
      </trkpt>
      <trkpt lat="46.42131" lon="4.83214">
        <ele>236</ele>
        <time>2020-09-22T10:47:32Z</time>
      </trkpt>
      <trkpt lat="46.42222" lon="4.83264">
        <ele>239</ele>
        <time>2020-09-22T10:47:54Z</time>
      </trkpt>
      <trkpt lat="46.42261" lon="4.83191">
        <ele>241</ele>
        <time>2020-09-22T10:48:09Z</time>
      </trkpt>
      <trkpt lat="46.42286" lon="4.83124">
        <ele>244</ele>
        <time>2020-09-22T10:48:21Z</time>
      </trkpt>
      <trkpt lat="46.42295" lon="4.83109">
        <ele>244</ele>
        <time>2020-09-22T10:48:25Z</time>
      </trkpt>
      <trkpt lat="46.4232" lon="4.83132">
        <ele>244</ele>
        <time>2020-09-22T10:48:31Z</time>
      </trkpt>
      <trkpt lat="46.42338" lon="4.83145">
        <ele>245</ele>
        <time>2020-09-22T10:48:36Z</time>
      </trkpt>
      <trkpt lat="46.42353" lon="4.83153">
        <ele>245</ele>
        <time>2020-09-22T10:48:40Z</time>
      </trkpt>
      <trkpt lat="46.4237" lon="4.83158">
        <ele>246</ele>
        <time>2020-09-22T10:48:44Z</time>
      </trkpt>
      <trkpt lat="46.42463" lon="4.8321">
        <ele>248</ele>
        <time>2020-09-22T10:49:07Z</time>
      </trkpt>
      <trkpt lat="46.4252" lon="4.83233">
        <ele>249</ele>
        <time>2020-09-22T10:49:21Z</time>
      </trkpt>
      <trkpt lat="46.42564" lon="4.83259">
        <ele>249</ele>
        <time>2020-09-22T10:49:32Z</time>
      </trkpt>
      <trkpt lat="46.42573" lon="4.83269">
        <ele>249</ele>
        <time>2020-09-22T10:49:35Z</time>
      </trkpt>
      <trkpt lat="46.42573" lon="4.83278">
        <ele>249</ele>
        <time>2020-09-22T10:49:36Z</time>
      </trkpt>
      <trkpt lat="46.42569" lon="4.83291">
        <ele>248</ele>
        <time>2020-09-22T10:49:39Z</time>
      </trkpt>
      <trkpt lat="46.4257" lon="4.83301">
        <ele>248</ele>
        <time>2020-09-22T10:49:40Z</time>
      </trkpt>
      <trkpt lat="46.42582" lon="4.83313">
        <ele>248</ele>
        <time>2020-09-22T10:49:44Z</time>
      </trkpt>
      <trkpt lat="46.42697" lon="4.83391">
        <ele>243</ele>
        <time>2020-09-22T10:50:13Z</time>
      </trkpt>
      <trkpt lat="46.42692" lon="4.83407">
        <ele>242</ele>
        <time>2020-09-22T10:50:16Z</time>
      </trkpt>
      <trkpt lat="46.42699" lon="4.83387">
        <ele>243</ele>
        <time>2020-09-22T10:50:20Z</time>
      </trkpt>
      <trkpt lat="46.42704" lon="4.8338">
        <ele>243</ele>
        <time>2020-09-22T10:50:21Z</time>
      </trkpt>
      <trkpt lat="46.42711" lon="4.83376">
        <ele>243</ele>
        <time>2020-09-22T10:50:23Z</time>
      </trkpt>
      <trkpt lat="46.42732" lon="4.83377">
        <ele>243</ele>
        <time>2020-09-22T10:50:28Z</time>
      </trkpt>
      <trkpt lat="46.42741" lon="4.83375">
        <ele>243</ele>
        <time>2020-09-22T10:50:30Z</time>
      </trkpt>
      <trkpt lat="46.42761" lon="4.83366">
        <ele>244</ele>
        <time>2020-09-22T10:50:35Z</time>
      </trkpt>
      <trkpt lat="46.42768" lon="4.83359">
        <ele>244</ele>
        <time>2020-09-22T10:50:37Z</time>
      </trkpt>
      <trkpt lat="46.42796" lon="4.83309">
        <ele>246</ele>
        <time>2020-09-22T10:50:47Z</time>
      </trkpt>
      <trkpt lat="46.42809" lon="4.83292">
        <ele>246</ele>
        <time>2020-09-22T10:50:51Z</time>
      </trkpt>
      <trkpt lat="46.42832" lon="4.83272">
        <ele>247</ele>
        <time>2020-09-22T10:50:58Z</time>
      </trkpt>
      <trkpt lat="46.42863" lon="4.83261">
        <ele>248</ele>
        <time>2020-09-22T10:51:05Z</time>
      </trkpt>
      <trkpt lat="46.42878" lon="4.83247">
        <ele>249</ele>
        <time>2020-09-22T10:51:09Z</time>
      </trkpt>
      <trkpt lat="46.42887" lon="4.83226">
        <ele>250</ele>
        <time>2020-09-22T10:51:13Z</time>
      </trkpt>
      <trkpt lat="46.42885" lon="4.83205">
        <ele>251</ele>
        <time>2020-09-22T10:51:17Z</time>
      </trkpt>
      <trkpt lat="46.42886" lon="4.83171">
        <ele>253</ele>
        <time>2020-09-22T10:51:22Z</time>
      </trkpt>
      <trkpt lat="46.42897" lon="4.83138">
        <ele>254</ele>
        <time>2020-09-22T10:51:28Z</time>
      </trkpt>
      <trkpt lat="46.42958" lon="4.83032">
        <ele>259</ele>
        <time>2020-09-22T10:51:50Z</time>
      </trkpt>
      <trkpt lat="46.43016" lon="4.82944">
        <ele>264</ele>
        <time>2020-09-22T10:52:10Z</time>
      </trkpt>
      <trkpt lat="46.43056" lon="4.82849">
        <ele>270</ele>
        <time>2020-09-22T10:52:28Z</time>
      </trkpt>
      <trkpt lat="46.43064" lon="4.82844">
        <ele>271</ele>
        <time>2020-09-22T10:52:30Z</time>
      </trkpt>
      <trkpt lat="46.43107" lon="4.82843">
        <ele>272</ele>
        <time>2020-09-22T10:52:40Z</time>
      </trkpt>
      <trkpt lat="46.43115" lon="4.82838">
        <ele>272</ele>
        <time>2020-09-22T10:52:42Z</time>
      </trkpt>
      <trkpt lat="46.43132" lon="4.82798">
        <ele>273</ele>
        <time>2020-09-22T10:52:49Z</time>
      </trkpt>
      <trkpt lat="46.432" lon="4.82657">
        <ele>282</ele>
        <time>2020-09-22T10:53:17Z</time>
      </trkpt>
      <trkpt lat="46.43215" lon="4.82639">
        <ele>283</ele>
        <time>2020-09-22T10:53:22Z</time>
      </trkpt>
      <trkpt lat="46.43225" lon="4.82634">
        <ele>284</ele>
        <time>2020-09-22T10:53:24Z</time>
      </trkpt>
      <trkpt lat="46.43263" lon="4.82624">
        <ele>287</ele>
        <time>2020-09-22T10:53:33Z</time>
      </trkpt>
      <trkpt lat="46.43316" lon="4.82614">
        <ele>292</ele>
        <time>2020-09-22T10:53:46Z</time>
      </trkpt>
      <trkpt lat="46.43326" lon="4.82614">
        <ele>293</ele>
        <time>2020-09-22T10:53:48Z</time>
      </trkpt>
      <trkpt lat="46.43353" lon="4.82621">
        <ele>295</ele>
        <time>2020-09-22T10:53:54Z</time>
      </trkpt>
      <trkpt lat="46.43365" lon="4.82626">
        <ele>295</ele>
        <time>2020-09-22T10:53:57Z</time>
      </trkpt>
      <trkpt lat="46.4339" lon="4.82645">
        <ele>296</ele>
        <time>2020-09-22T10:54:04Z</time>
      </trkpt>
      <trkpt lat="46.43397" lon="4.82647">
        <ele>297</ele>
        <time>2020-09-22T10:54:06Z</time>
      </trkpt>
      <trkpt lat="46.43411" lon="4.82643">
        <ele>299</ele>
        <time>2020-09-22T10:54:09Z</time>
      </trkpt>
      <trkpt lat="46.43415" lon="4.82639">
        <ele>299</ele>
        <time>2020-09-22T10:54:10Z</time>
      </trkpt>
      <trkpt lat="46.43415" lon="4.82634">
        <ele>300</ele>
        <time>2020-09-22T10:54:11Z</time>
      </trkpt>
      <trkpt lat="46.43445" lon="4.82633">
        <ele>302</ele>
        <time>2020-09-22T10:54:18Z</time>
      </trkpt>
      <trkpt lat="46.43464" lon="4.82628">
        <ele>303</ele>
        <time>2020-09-22T10:54:22Z</time>
      </trkpt>
      <trkpt lat="46.43475" lon="4.82628">
        <ele>304</ele>
        <time>2020-09-22T10:54:25Z</time>
      </trkpt>
      <trkpt lat="46.43479" lon="4.82625">
        <ele>304</ele>
        <time>2020-09-22T10:54:26Z</time>
      </trkpt>
      <trkpt lat="46.43488" lon="4.82626">
        <ele>305</ele>
        <time>2020-09-22T10:54:28Z</time>
      </trkpt>
      <trkpt lat="46.43499" lon="4.82571">
        <ele>308</ele>
        <time>2020-09-22T10:54:37Z</time>
      </trkpt>
      <trkpt lat="46.43551" lon="4.8247">
        <ele>311</ele>
        <time>2020-09-22T10:54:58Z</time>
      </trkpt>
      <trkpt lat="46.43645" lon="4.82552">
        <ele>314</ele>
        <time>2020-09-22T10:55:23Z</time>
      </trkpt>
      <trkpt lat="46.43662" lon="4.82541">
        <ele>313</ele>
        <time>2020-09-22T10:55:28Z</time>
      </trkpt>
      <trkpt lat="46.43714" lon="4.82499">
        <ele>311</ele>
        <time>2020-09-22T10:55:41Z</time>
      </trkpt>
      <trkpt lat="46.43754" lon="4.82462">
        <ele>310</ele>
        <time>2020-09-22T10:55:53Z</time>
      </trkpt>
      <trkpt lat="46.4377" lon="4.82443">
        <ele>312</ele>
        <time>2020-09-22T10:55:57Z</time>
      </trkpt>
      <trkpt lat="46.43795" lon="4.82406">
        <ele>317</ele>
        <time>2020-09-22T10:56:06Z</time>
      </trkpt>
      <trkpt lat="46.43822" lon="4.82309">
        <ele>326</ele>
        <time>2020-09-22T10:56:23Z</time>
      </trkpt>
      <trkpt lat="46.43838" lon="4.82281">
        <ele>329</ele>
        <time>2020-09-22T10:56:28Z</time>
      </trkpt>
      <trkpt lat="46.43866" lon="4.82214">
        <ele>332</ele>
        <time>2020-09-22T10:56:41Z</time>
      </trkpt>
      <trkpt lat="46.43869" lon="4.82198">
        <ele>332</ele>
        <time>2020-09-22T10:56:44Z</time>
      </trkpt>
      <trkpt lat="46.43867" lon="4.82166">
        <ele>330</ele>
        <time>2020-09-22T10:56:49Z</time>
      </trkpt>
      <trkpt lat="46.4387" lon="4.82142">
        <ele>328</ele>
        <time>2020-09-22T10:56:53Z</time>
      </trkpt>
      <trkpt lat="46.43881" lon="4.82104">
        <ele>326</ele>
        <time>2020-09-22T10:56:59Z</time>
      </trkpt>
      <trkpt lat="46.4389" lon="4.82085">
        <ele>326</ele>
        <time>2020-09-22T10:57:03Z</time>
      </trkpt>
      <trkpt lat="46.43929" lon="4.82052">
        <ele>322</ele>
        <time>2020-09-22T10:57:14Z</time>
      </trkpt>
      <trkpt lat="46.43987" lon="4.81987">
        <ele>310</ele>
        <time>2020-09-22T10:57:31Z</time>
      </trkpt>
      <trkpt lat="46.44011" lon="4.81954">
        <ele>303</ele>
        <time>2020-09-22T10:57:39Z</time>
      </trkpt>
      <trkpt lat="46.44072" lon="4.81928">
        <ele>301</ele>
        <time>2020-09-22T10:57:53Z</time>
      </trkpt>
      <trkpt lat="46.44104" lon="4.81904">
        <ele>298</ele>
        <time>2020-09-22T10:58:02Z</time>
      </trkpt>
      <trkpt lat="46.44122" lon="4.81862">
        <ele>295</ele>
        <time>2020-09-22T10:58:10Z</time>
      </trkpt>
      <trkpt lat="46.44128" lon="4.81823">
        <ele>292</ele>
        <time>2020-09-22T10:58:16Z</time>
      </trkpt>
      <trkpt lat="46.44125" lon="4.81743">
        <ele>287</ele>
        <time>2020-09-22T10:58:29Z</time>
      </trkpt>
      <trkpt lat="46.44108" lon="4.81572">
        <ele>290</ele>
        <time>2020-09-22T10:58:57Z</time>
      </trkpt>
      <trkpt lat="46.44106" lon="4.81462">
        <ele>291</ele>
        <time>2020-09-22T10:59:15Z</time>
      </trkpt>
      <trkpt lat="46.44117" lon="4.81376">
        <ele>297</ele>
        <time>2020-09-22T10:59:29Z</time>
      </trkpt>
      <trkpt lat="46.44115" lon="4.81339">
        <ele>299</ele>
        <time>2020-09-22T10:59:35Z</time>
      </trkpt>
      <trkpt lat="46.44113" lon="4.81321">
        <ele>300</ele>
        <time>2020-09-22T10:59:38Z</time>
      </trkpt>
      <trkpt lat="46.44087" lon="4.8121">
        <ele>301</ele>
        <time>2020-09-22T10:59:56Z</time>
      </trkpt>
      <trkpt lat="46.44083" lon="4.81167">
        <ele>301</ele>
        <time>2020-09-22T11:00:03Z</time>
      </trkpt>
      <trkpt lat="46.44042" lon="4.81153">
        <ele>298</ele>
        <time>2020-09-22T11:00:13Z</time>
      </trkpt>
      <trkpt lat="46.44033" lon="4.81147">
        <ele>298</ele>
        <time>2020-09-22T11:00:16Z</time>
      </trkpt>
      <trkpt lat="46.4402" lon="4.81084">
        <ele>298</ele>
        <time>2020-09-22T11:00:26Z</time>
      </trkpt>
      <trkpt lat="46.44013" lon="4.8103">
        <ele>297</ele>
        <time>2020-09-22T11:00:35Z</time>
      </trkpt>
      <trkpt lat="46.44037" lon="4.8103">
        <ele>297</ele>
        <time>2020-09-22T11:00:41Z</time>
      </trkpt>
      <trkpt lat="46.44128" lon="4.81048">
        <ele>298</ele>
        <time>2020-09-22T11:01:02Z</time>
      </trkpt>
      <trkpt lat="46.4424" lon="4.81081">
        <ele>298</ele>
        <time>2020-09-22T11:01:29Z</time>
      </trkpt>
      <trkpt lat="46.44263" lon="4.81094">
        <ele>297</ele>
        <time>2020-09-22T11:01:34Z</time>
      </trkpt>
      <trkpt lat="46.44285" lon="4.8111">
        <ele>297</ele>
        <time>2020-09-22T11:01:40Z</time>
      </trkpt>
      <trkpt lat="46.44327" lon="4.81116">
        <ele>294</ele>
        <time>2020-09-22T11:01:50Z</time>
      </trkpt>
      <trkpt lat="46.4435" lon="4.81116">
        <ele>293</ele>
        <time>2020-09-22T11:01:55Z</time>
      </trkpt>
      <trkpt lat="46.44378" lon="4.81102">
        <ele>289</ele>
        <time>2020-09-22T11:02:02Z</time>
      </trkpt>
      <trkpt lat="46.44439" lon="4.8109">
        <ele>285</ele>
        <time>2020-09-22T11:02:17Z</time>
      </trkpt>
      <trkpt lat="46.44473" lon="4.81093">
        <ele>283</ele>
        <time>2020-09-22T11:02:25Z</time>
      </trkpt>
      <trkpt lat="46.44493" lon="4.811">
        <ele>283</ele>
        <time>2020-09-22T11:02:30Z</time>
      </trkpt>
      <trkpt lat="46.44514" lon="4.81099">
        <ele>283</ele>
        <time>2020-09-22T11:02:34Z</time>
      </trkpt>
      <trkpt lat="46.44588" lon="4.81075">
        <ele>285</ele>
        <time>2020-09-22T11:02:52Z</time>
      </trkpt>
      <trkpt lat="46.4459" lon="4.81064">
        <ele>285</ele>
        <time>2020-09-22T11:02:54Z</time>
      </trkpt>
      <trkpt lat="46.44631" lon="4.80993">
        <ele>287</ele>
        <time>2020-09-22T11:03:09Z</time>
      </trkpt>
      <trkpt lat="46.4468" lon="4.80919">
        <ele>294</ele>
        <time>2020-09-22T11:03:25Z</time>
      </trkpt>
      <trkpt lat="46.44728" lon="4.80816">
        <ele>302</ele>
        <time>2020-09-22T11:03:45Z</time>
      </trkpt>
      <trkpt lat="46.44749" lon="4.8075">
        <ele>302</ele>
        <time>2020-09-22T11:03:57Z</time>
      </trkpt>
      <trkpt lat="46.44755" lon="4.80694">
        <ele>298</ele>
        <time>2020-09-22T11:04:06Z</time>
      </trkpt>
      <trkpt lat="46.44765" lon="4.80649">
        <ele>296</ele>
        <time>2020-09-22T11:04:14Z</time>
      </trkpt>
      <trkpt lat="46.44767" lon="4.80629">
        <ele>295</ele>
        <time>2020-09-22T11:04:17Z</time>
      </trkpt>
      <trkpt lat="46.44763" lon="4.80542">
        <ele>290</ele>
        <time>2020-09-22T11:04:31Z</time>
      </trkpt>
      <trkpt lat="46.44774" lon="4.80456">
        <ele>283</ele>
        <time>2020-09-22T11:04:45Z</time>
      </trkpt>
      <trkpt lat="46.44783" lon="4.80414">
        <ele>280</ele>
        <time>2020-09-22T11:04:52Z</time>
      </trkpt>
      <trkpt lat="46.44783" lon="4.80405">
        <ele>279</ele>
        <time>2020-09-22T11:04:54Z</time>
      </trkpt>
      <trkpt lat="46.44767" lon="4.80405">
        <ele>279</ele>
        <time>2020-09-22T11:04:57Z</time>
      </trkpt>
      <trkpt lat="46.44784" lon="4.80396">
        <ele>278</ele>
        <time>2020-09-22T11:05:02Z</time>
      </trkpt>
      <trkpt lat="46.44801" lon="4.80382">
        <ele>277</ele>
        <time>2020-09-22T11:05:06Z</time>
      </trkpt>
      <trkpt lat="46.44832" lon="4.80326">
        <ele>272</ele>
        <time>2020-09-22T11:05:18Z</time>
      </trkpt>
      <trkpt lat="46.44846" lon="4.80308">
        <ele>271</ele>
        <time>2020-09-22T11:05:22Z</time>
      </trkpt>
      <trkpt lat="46.44916" lon="4.80242">
        <ele>269</ele>
        <time>2020-09-22T11:05:42Z</time>
      </trkpt>
      <trkpt lat="46.44924" lon="4.80232">
        <ele>269</ele>
        <time>2020-09-22T11:05:44Z</time>
      </trkpt>
      <trkpt lat="46.44951" lon="4.8018">
        <ele>268</ele>
        <time>2020-09-22T11:05:55Z</time>
      </trkpt>
      <trkpt lat="46.44989" lon="4.80121">
        <ele>269</ele>
        <time>2020-09-22T11:06:08Z</time>
      </trkpt>
      <trkpt lat="46.45019" lon="4.80057">
        <ele>269</ele>
        <time>2020-09-22T11:06:20Z</time>
      </trkpt>
      <trkpt lat="46.44992" lon="4.79979">
        <ele>268</ele>
        <time>2020-09-22T11:06:34Z</time>
      </trkpt>
      <trkpt lat="46.44994" lon="4.79953">
        <ele>270</ele>
        <time>2020-09-22T11:06:38Z</time>
      </trkpt>
      <trkpt lat="46.45017" lon="4.79917">
        <ele>273</ele>
        <time>2020-09-22T11:06:46Z</time>
      </trkpt>
      <trkpt lat="46.45109" lon="4.79863">
        <ele>277</ele>
        <time>2020-09-22T11:07:09Z</time>
      </trkpt>
      <trkpt lat="46.45186" lon="4.79861">
        <ele>277</ele>
        <time>2020-09-22T11:07:27Z</time>
      </trkpt>
      <trkpt lat="46.45186" lon="4.79821">
        <ele>280</ele>
        <time>2020-09-22T11:07:34Z</time>
      </trkpt>
      <trkpt lat="46.45193" lon="4.79775">
        <ele>283</ele>
        <time>2020-09-22T11:07:41Z</time>
      </trkpt>
      <trkpt lat="46.45204" lon="4.7975">
        <ele>285</ele>
        <time>2020-09-22T11:07:46Z</time>
      </trkpt>
      <trkpt lat="46.45234" lon="4.79702">
        <ele>286</ele>
        <time>2020-09-22T11:07:57Z</time>
      </trkpt>
      <trkpt lat="46.45265" lon="4.79605">
        <ele>287</ele>
        <time>2020-09-22T11:08:14Z</time>
      </trkpt>
      <trkpt lat="46.45285" lon="4.79532">
        <ele>284</ele>
        <time>2020-09-22T11:08:26Z</time>
      </trkpt>
      <trkpt lat="46.45284" lon="4.79455">
        <ele>280</ele>
        <time>2020-09-22T11:08:39Z</time>
      </trkpt>
      <trkpt lat="46.45273" lon="4.79452">
        <ele>280</ele>
        <time>2020-09-22T11:08:41Z</time>
      </trkpt>
      <trkpt lat="46.45269" lon="4.79358">
        <ele>270</ele>
        <time>2020-09-22T11:08:57Z</time>
      </trkpt>
      <trkpt lat="46.45235" lon="4.79341">
        <ele>268</ele>
        <time>2020-09-22T11:09:05Z</time>
      </trkpt>
      <trkpt lat="46.45186" lon="4.79327">
        <ele>266</ele>
        <time>2020-09-22T11:09:17Z</time>
      </trkpt>
      <trkpt lat="46.4515" lon="4.79321">
        <ele>265</ele>
        <time>2020-09-22T11:09:25Z</time>
      </trkpt>
      <trkpt lat="46.45118" lon="4.79321">
        <ele>264</ele>
        <time>2020-09-22T11:09:33Z</time>
      </trkpt>
      <trkpt lat="46.45052" lon="4.79332">
        <ele>261</ele>
        <time>2020-09-22T11:09:48Z</time>
      </trkpt>
      <trkpt lat="46.44951" lon="4.79309">
        <ele>253</ele>
        <time>2020-09-22T11:10:12Z</time>
      </trkpt>
      <trkpt lat="46.44938" lon="4.79304">
        <ele>252</ele>
        <time>2020-09-22T11:10:15Z</time>
      </trkpt>
      <trkpt lat="46.44924" lon="4.79288">
        <ele>251</ele>
        <time>2020-09-22T11:10:19Z</time>
      </trkpt>
      <trkpt lat="46.44913" lon="4.79267">
        <ele>249</ele>
        <time>2020-09-22T11:10:23Z</time>
      </trkpt>
      <trkpt lat="46.4491" lon="4.79257">
        <ele>248</ele>
        <time>2020-09-22T11:10:25Z</time>
      </trkpt>
      <trkpt lat="46.44912" lon="4.79231">
        <ele>247</ele>
        <time>2020-09-22T11:10:29Z</time>
      </trkpt>
      <trkpt lat="46.44908" lon="4.79223">
        <ele>247</ele>
        <time>2020-09-22T11:10:31Z</time>
      </trkpt>
      <trkpt lat="46.44899" lon="4.7922">
        <ele>247</ele>
        <time>2020-09-22T11:10:33Z</time>
      </trkpt>
      <trkpt lat="46.44789" lon="4.7921">
        <ele>246</ele>
        <time>2020-09-22T11:10:59Z</time>
      </trkpt>
      <trkpt lat="46.4472" lon="4.79193">
        <ele>246</ele>
        <time>2020-09-22T11:11:15Z</time>
      </trkpt>
      <trkpt lat="46.44665" lon="4.79187">
        <ele>245</ele>
        <time>2020-09-22T11:11:28Z</time>
      </trkpt>
      <trkpt lat="46.44619" lon="4.7919">
        <ele>244</ele>
        <time>2020-09-22T11:11:39Z</time>
      </trkpt>
      <trkpt lat="46.44604" lon="4.79184">
        <ele>244</ele>
        <time>2020-09-22T11:11:43Z</time>
      </trkpt>
      <trkpt lat="46.44597" lon="4.79176">
        <ele>244</ele>
        <time>2020-09-22T11:11:45Z</time>
      </trkpt>
      <trkpt lat="46.44569" lon="4.79125">
        <ele>242</ele>
        <time>2020-09-22T11:11:55Z</time>
      </trkpt>
      <trkpt lat="46.44568" lon="4.79114">
        <ele>242</ele>
        <time>2020-09-22T11:11:57Z</time>
      </trkpt>
      <trkpt lat="46.44574" lon="4.79035">
        <ele>242</ele>
        <time>2020-09-22T11:12:10Z</time>
      </trkpt>
      <trkpt lat="46.44566" lon="4.7895">
        <ele>243</ele>
        <time>2020-09-22T11:12:24Z</time>
      </trkpt>
      <trkpt lat="46.44565" lon="4.78922">
        <ele>243</ele>
        <time>2020-09-22T11:12:28Z</time>
      </trkpt>
      <trkpt lat="46.44568" lon="4.78871">
        <ele>244</ele>
        <time>2020-09-22T11:12:36Z</time>
      </trkpt>
      <trkpt lat="46.44566" lon="4.78865">
        <ele>244</ele>
        <time>2020-09-22T11:12:37Z</time>
      </trkpt>
      <trkpt lat="46.44586" lon="4.78875">
        <ele>244</ele>
        <time>2020-09-22T11:12:42Z</time>
      </trkpt>
      <trkpt lat="46.44592" lon="4.78884">
        <ele>245</ele>
        <time>2020-09-22T11:12:44Z</time>
      </trkpt>
      <trkpt lat="46.44608" lon="4.78928">
        <ele>246</ele>
        <time>2020-09-22T11:12:52Z</time>
      </trkpt>
      <trkpt lat="46.44647" lon="4.78978">
        <ele>249</ele>
        <time>2020-09-22T11:13:04Z</time>
      </trkpt>
      <trkpt lat="46.44662" lon="4.78986">
        <ele>251</ele>
        <time>2020-09-22T11:13:08Z</time>
      </trkpt>
      <trkpt lat="46.44684" lon="4.78992">
        <ele>252</ele>
        <time>2020-09-22T11:13:13Z</time>
      </trkpt>
      <trkpt lat="46.44711" lon="4.78995">
        <ele>255</ele>
        <time>2020-09-22T11:13:20Z</time>
      </trkpt>
      <trkpt lat="46.4479" lon="4.78992">
        <ele>257</ele>
        <time>2020-09-22T11:13:38Z</time>
      </trkpt>
      <trkpt lat="46.44803" lon="4.78994">
        <ele>256</ele>
        <time>2020-09-22T11:13:41Z</time>
      </trkpt>
      <trkpt lat="46.44863" lon="4.79019">
        <ele>253</ele>
        <time>2020-09-22T11:13:56Z</time>
      </trkpt>
      <trkpt lat="46.44881" lon="4.79022">
        <ele>252</ele>
        <time>2020-09-22T11:14:00Z</time>
      </trkpt>
      <trkpt lat="46.44924" lon="4.79022">
        <ele>251</ele>
        <time>2020-09-22T11:14:10Z</time>
      </trkpt>
      <trkpt lat="46.44936" lon="4.79026">
        <ele>252</ele>
        <time>2020-09-22T11:14:13Z</time>
      </trkpt>
      <trkpt lat="46.44953" lon="4.79037">
        <ele>253</ele>
        <time>2020-09-22T11:14:17Z</time>
      </trkpt>
      <trkpt lat="46.44959" lon="4.79036">
        <ele>254</ele>
        <time>2020-09-22T11:14:19Z</time>
      </trkpt>
      <trkpt lat="46.44962" lon="4.79033">
        <ele>254</ele>
        <time>2020-09-22T11:14:20Z</time>
      </trkpt>
      <trkpt lat="46.44968" lon="4.79011">
        <ele>256</ele>
        <time>2020-09-22T11:14:23Z</time>
      </trkpt>
      <trkpt lat="46.44974" lon="4.78943">
        <ele>259</ele>
        <time>2020-09-22T11:14:34Z</time>
      </trkpt>
      <trkpt lat="46.44979" lon="4.78916">
        <ele>259</ele>
        <time>2020-09-22T11:14:39Z</time>
      </trkpt>
      <trkpt lat="46.45009" lon="4.78808">
        <ele>259</ele>
        <time>2020-09-22T11:14:58Z</time>
      </trkpt>
      <trkpt lat="46.45019" lon="4.78783">
        <ele>259</ele>
        <time>2020-09-22T11:15:02Z</time>
      </trkpt>
      <trkpt lat="46.45074" lon="4.78704">
        <ele>261</ele>
        <time>2020-09-22T11:15:20Z</time>
      </trkpt>
      <trkpt lat="46.45085" lon="4.78651">
        <ele>258</ele>
        <time>2020-09-22T11:15:29Z</time>
      </trkpt>
      <trkpt lat="46.45142" lon="4.78545">
        <ele>264</ele>
        <time>2020-09-22T11:15:51Z</time>
      </trkpt>
      <trkpt lat="46.45178" lon="4.7841">
        <ele>262</ele>
        <time>2020-09-22T11:16:14Z</time>
      </trkpt>
      <trkpt lat="46.45185" lon="4.78375">
        <ele>262</ele>
        <time>2020-09-22T11:16:20Z</time>
      </trkpt>
      <trkpt lat="46.45187" lon="4.78341">
        <ele>260</ele>
        <time>2020-09-22T11:16:26Z</time>
      </trkpt>
      <trkpt lat="46.45192" lon="4.78319">
        <ele>261</ele>
        <time>2020-09-22T11:16:29Z</time>
      </trkpt>
      <trkpt lat="46.45203" lon="4.78289">
        <ele>261</ele>
        <time>2020-09-22T11:16:35Z</time>
      </trkpt>
      <trkpt lat="46.45224" lon="4.78243">
        <ele>261</ele>
        <time>2020-09-22T11:16:44Z</time>
      </trkpt>
      <trkpt lat="46.45254" lon="4.78156">
        <ele>263</ele>
        <time>2020-09-22T11:16:59Z</time>
      </trkpt>
      <trkpt lat="46.45261" lon="4.78147">
        <ele>264</ele>
        <time>2020-09-22T11:17:01Z</time>
      </trkpt>
      <trkpt lat="46.45327" lon="4.78093">
        <ele>268</ele>
        <time>2020-09-22T11:17:19Z</time>
      </trkpt>
      <trkpt lat="46.45361" lon="4.78073">
        <ele>270</ele>
        <time>2020-09-22T11:17:28Z</time>
      </trkpt>
      <trkpt lat="46.45417" lon="4.78053">
        <ele>272</ele>
        <time>2020-09-22T11:17:41Z</time>
      </trkpt>
      <trkpt lat="46.45433" lon="4.78042">
        <ele>272</ele>
        <time>2020-09-22T11:17:45Z</time>
      </trkpt>
      <trkpt lat="46.45485" lon="4.77977">
        <ele>272</ele>
        <time>2020-09-22T11:18:01Z</time>
      </trkpt>
      <trkpt lat="46.45501" lon="4.77962">
        <ele>272</ele>
        <time>2020-09-22T11:18:06Z</time>
      </trkpt>
      <trkpt lat="46.45536" lon="4.77936">
        <ele>273</ele>
        <time>2020-09-22T11:18:15Z</time>
      </trkpt>
      <trkpt lat="46.4555" lon="4.77922">
        <ele>274</ele>
        <time>2020-09-22T11:18:19Z</time>
      </trkpt>
      <trkpt lat="46.4557" lon="4.77891">
        <ele>274</ele>
        <time>2020-09-22T11:18:26Z</time>
      </trkpt>
      <trkpt lat="46.4563" lon="4.77767">
        <ele>277</ele>
        <time>2020-09-22T11:18:50Z</time>
      </trkpt>
      <trkpt lat="46.45646" lon="4.77745">
        <ele>277</ele>
        <time>2020-09-22T11:18:55Z</time>
      </trkpt>
      <trkpt lat="46.45665" lon="4.77726">
        <ele>278</ele>
        <time>2020-09-22T11:19:01Z</time>
      </trkpt>
      <trkpt lat="46.45678" lon="4.77717">
        <ele>278</ele>
        <time>2020-09-22T11:19:04Z</time>
      </trkpt>
      <trkpt lat="46.45731" lon="4.77688">
        <ele>278</ele>
        <time>2020-09-22T11:19:17Z</time>
      </trkpt>
      <trkpt lat="46.45769" lon="4.77646">
        <ele>278</ele>
        <time>2020-09-22T11:19:28Z</time>
      </trkpt>
      <trkpt lat="46.45764" lon="4.77435">
        <ele>270</ele>
        <time>2020-09-22T11:20:02Z</time>
      </trkpt>
      <trkpt lat="46.45769" lon="4.77381">
        <ele>271</ele>
        <time>2020-09-22T11:20:11Z</time>
      </trkpt>
      <trkpt lat="46.45783" lon="4.77291">
        <ele>274</ele>
        <time>2020-09-22T11:20:26Z</time>
      </trkpt>
      <trkpt lat="46.45793" lon="4.77152">
        <ele>278</ele>
        <time>2020-09-22T11:20:48Z</time>
      </trkpt>
      <trkpt lat="46.45786" lon="4.77141">
        <ele>278</ele>
        <time>2020-09-22T11:20:51Z</time>
      </trkpt>
      <trkpt lat="46.45779" lon="4.77119">
        <ele>278</ele>
        <time>2020-09-22T11:20:55Z</time>
      </trkpt>
      <trkpt lat="46.45782" lon="4.77086">
        <ele>278</ele>
        <time>2020-09-22T11:21:00Z</time>
      </trkpt>
      <trkpt lat="46.4579" lon="4.77042">
        <ele>279</ele>
        <time>2020-09-22T11:21:07Z</time>
      </trkpt>
      <trkpt lat="46.45814" lon="4.76974">
        <ele>280</ele>
        <time>2020-09-22T11:21:20Z</time>
      </trkpt>
      <trkpt lat="46.45839" lon="4.7688">
        <ele>283</ele>
        <time>2020-09-22T11:21:36Z</time>
      </trkpt>
      <trkpt lat="46.45904" lon="4.76708">
        <ele>301</ele>
        <time>2020-09-22T11:22:08Z</time>
      </trkpt>
      <trkpt lat="46.45933" lon="4.76682">
        <ele>307</ele>
        <time>2020-09-22T11:22:16Z</time>
      </trkpt>
      <trkpt lat="46.45955" lon="4.7667">
        <ele>311</ele>
        <time>2020-09-22T11:22:21Z</time>
      </trkpt>
      <trkpt lat="46.45972" lon="4.7667">
        <ele>313</ele>
        <time>2020-09-22T11:22:25Z</time>
      </trkpt>
      <trkpt lat="46.45995" lon="4.76674">
        <ele>314</ele>
        <time>2020-09-22T11:22:30Z</time>
      </trkpt>
      <trkpt lat="46.46024" lon="4.76668">
        <ele>318</ele>
        <time>2020-09-22T11:22:37Z</time>
      </trkpt>
      <trkpt lat="46.46038" lon="4.76661">
        <ele>320</ele>
        <time>2020-09-22T11:22:41Z</time>
      </trkpt>
      <trkpt lat="46.46011" lon="4.76638">
        <ele>322</ele>
        <time>2020-09-22T11:22:48Z</time>
      </trkpt>
      <trkpt lat="46.45925" lon="4.76591">
        <ele>323</ele>
        <time>2020-09-22T11:23:09Z</time>
      </trkpt>
      <trkpt lat="46.4575" lon="4.76517">
        <ele>322</ele>
        <time>2020-09-22T11:23:52Z</time>
      </trkpt>
      <trkpt lat="46.4573" lon="4.7651">
        <ele>322</ele>
        <time>2020-09-22T11:23:57Z</time>
      </trkpt>
      <trkpt lat="46.4569" lon="4.76507">
        <ele>320</ele>
        <time>2020-09-22T11:24:06Z</time>
      </trkpt>
      <trkpt lat="46.45648" lon="4.76485">
        <ele>321</ele>
        <time>2020-09-22T11:24:17Z</time>
      </trkpt>
      <trkpt lat="46.45562" lon="4.76449">
        <ele>324</ele>
        <time>2020-09-22T11:24:37Z</time>
      </trkpt>
      <trkpt lat="46.45517" lon="4.76423">
        <ele>326</ele>
        <time>2020-09-22T11:24:49Z</time>
      </trkpt>
      <trkpt lat="46.45512" lon="4.76418">
        <ele>327</ele>
        <time>2020-09-22T11:24:50Z</time>
      </trkpt>
      <trkpt lat="46.45532" lon="4.76418">
        <ele>328</ele>
        <time>2020-09-22T11:24:55Z</time>
      </trkpt>
      <trkpt lat="46.45522" lon="4.76408">
        <ele>329</ele>
        <time>2020-09-22T11:24:58Z</time>
      </trkpt>
      <trkpt lat="46.45508" lon="4.76407">
        <ele>328</ele>
        <time>2020-09-22T11:25:01Z</time>
      </trkpt>
      <trkpt lat="46.45483" lon="4.76396">
        <ele>329</ele>
        <time>2020-09-22T11:25:07Z</time>
      </trkpt>
      <trkpt lat="46.45447" lon="4.76385">
        <ele>329</ele>
        <time>2020-09-22T11:25:16Z</time>
      </trkpt>
      <trkpt lat="46.45395" lon="4.76375">
        <ele>327</ele>
        <time>2020-09-22T11:25:28Z</time>
      </trkpt>
      <trkpt lat="46.45458" lon="4.76388">
        <ele>329</ele>
        <time>2020-09-22T11:25:43Z</time>
      </trkpt>
      <trkpt lat="46.45343" lon="4.76365">
        <ele>327</ele>
        <time>2020-09-22T11:26:10Z</time>
      </trkpt>
      <trkpt lat="46.45297" lon="4.76342">
        <ele>330</ele>
        <time>2020-09-22T11:26:21Z</time>
      </trkpt>
      <trkpt lat="46.45249" lon="4.76332">
        <ele>331</ele>
        <time>2020-09-22T11:26:33Z</time>
      </trkpt>
      <trkpt lat="46.45204" lon="4.76315">
        <ele>333</ele>
        <time>2020-09-22T11:26:43Z</time>
      </trkpt>
      <trkpt lat="46.45173" lon="4.76306">
        <ele>334</ele>
        <time>2020-09-22T11:26:51Z</time>
      </trkpt>
      <trkpt lat="46.45147" lon="4.763">
        <ele>335</ele>
        <time>2020-09-22T11:26:57Z</time>
      </trkpt>
      <trkpt lat="46.45093" lon="4.76299">
        <ele>335</ele>
        <time>2020-09-22T11:27:10Z</time>
      </trkpt>
      <trkpt lat="46.45062" lon="4.76296">
        <ele>334</ele>
        <time>2020-09-22T11:27:17Z</time>
      </trkpt>
      <trkpt lat="46.45041" lon="4.7629">
        <ele>334</ele>
        <time>2020-09-22T11:27:22Z</time>
      </trkpt>
      <trkpt lat="46.44986" lon="4.76249">
        <ele>339</ele>
        <time>2020-09-22T11:27:36Z</time>
      </trkpt>
      <trkpt lat="46.44844" lon="4.76178">
        <ele>344</ele>
        <time>2020-09-22T11:28:11Z</time>
      </trkpt>
      <trkpt lat="46.44831" lon="4.7619">
        <ele>343</ele>
        <time>2020-09-22T11:28:15Z</time>
      </trkpt>
      <trkpt lat="46.44827" lon="4.76214">
        <ele>341</ele>
        <time>2020-09-22T11:28:19Z</time>
      </trkpt>
      <trkpt lat="46.44851" lon="4.76249">
        <ele>336</ele>
        <time>2020-09-22T11:28:27Z</time>
      </trkpt>
      <trkpt lat="46.44882" lon="4.76304">
        <ele>328</ele>
        <time>2020-09-22T11:28:38Z</time>
      </trkpt>
      <trkpt lat="46.44898" lon="4.76349">
        <ele>322</ele>
        <time>2020-09-22T11:28:46Z</time>
      </trkpt>
      <trkpt lat="46.44903" lon="4.76406">
        <ele>315</ele>
        <time>2020-09-22T11:28:56Z</time>
      </trkpt>
      <trkpt lat="46.44913" lon="4.76445">
        <ele>309</ele>
        <time>2020-09-22T11:29:02Z</time>
      </trkpt>
      <trkpt lat="46.44916" lon="4.76476">
        <ele>305</ele>
        <time>2020-09-22T11:29:07Z</time>
      </trkpt>
      <trkpt lat="46.44964" lon="4.76587">
        <ele>290</ele>
        <time>2020-09-22T11:29:29Z</time>
      </trkpt>
      <trkpt lat="46.44974" lon="4.76623">
        <ele>287</ele>
        <time>2020-09-22T11:29:35Z</time>
      </trkpt>
      <trkpt lat="46.44984" lon="4.76643">
        <ele>285</ele>
        <time>2020-09-22T11:29:39Z</time>
      </trkpt>
      <trkpt lat="46.44991" lon="4.76671">
        <ele>283</ele>
        <time>2020-09-22T11:29:44Z</time>
      </trkpt>
      <trkpt lat="46.44984" lon="4.76668">
        <ele>284</ele>
        <time>2020-09-22T11:29:45Z</time>
      </trkpt>
      <trkpt lat="46.44959" lon="4.76644">
        <ele>285</ele>
        <time>2020-09-22T11:29:52Z</time>
      </trkpt>
      <trkpt lat="46.44937" lon="4.76602">
        <ele>289</ele>
        <time>2020-09-22T11:30:01Z</time>
      </trkpt>
      <trkpt lat="46.44924" lon="4.76546">
        <ele>296</ele>
        <time>2020-09-22T11:30:10Z</time>
      </trkpt>
      <trkpt lat="46.44903" lon="4.76525">
        <ele>300</ele>
        <time>2020-09-22T11:30:16Z</time>
      </trkpt>
      <trkpt lat="46.44899" lon="4.76517">
        <ele>302</ele>
        <time>2020-09-22T11:30:18Z</time>
      </trkpt>
      <trkpt lat="46.44892" lon="4.7651">
        <ele>303</ele>
        <time>2020-09-22T11:30:20Z</time>
      </trkpt>
      <trkpt lat="46.44828" lon="4.76495">
        <ele>312</ele>
        <time>2020-09-22T11:30:35Z</time>
      </trkpt>
      <trkpt lat="46.44757" lon="4.76461">
        <ele>318</ele>
        <time>2020-09-22T11:30:52Z</time>
      </trkpt>
      <trkpt lat="46.44669" lon="4.76391">
        <ele>327</ele>
        <time>2020-09-22T11:31:16Z</time>
      </trkpt>
      <trkpt lat="46.4457" lon="4.76322">
        <ele>335</ele>
        <time>2020-09-22T11:31:41Z</time>
      </trkpt>
      <trkpt lat="46.44532" lon="4.7631">
        <ele>333</ele>
        <time>2020-09-22T11:31:51Z</time>
      </trkpt>
      <trkpt lat="46.44513" lon="4.76316">
        <ele>329</ele>
        <time>2020-09-22T11:31:55Z</time>
      </trkpt>
      <trkpt lat="46.44505" lon="4.76314">
        <ele>329</ele>
        <time>2020-09-22T11:31:57Z</time>
      </trkpt>
      <trkpt lat="46.44486" lon="4.76297">
        <ele>330</ele>
        <time>2020-09-22T11:32:02Z</time>
      </trkpt>
      <trkpt lat="46.44475" lon="4.76295">
        <ele>328</ele>
        <time>2020-09-22T11:32:05Z</time>
      </trkpt>
      <trkpt lat="46.4447" lon="4.76288">
        <ele>329</ele>
        <time>2020-09-22T11:32:06Z</time>
      </trkpt>
      <trkpt lat="46.44429" lon="4.76284">
        <ele>324</ele>
        <time>2020-09-22T11:32:16Z</time>
      </trkpt>
      <trkpt lat="46.44417" lon="4.76276">
        <ele>323</ele>
        <time>2020-09-22T11:32:19Z</time>
      </trkpt>
      <trkpt lat="46.44337" lon="4.76252">
        <ele>320</ele>
        <time>2020-09-22T11:32:38Z</time>
      </trkpt>
      <trkpt lat="46.44295" lon="4.76236">
        <ele>317</ele>
        <time>2020-09-22T11:32:48Z</time>
      </trkpt>
      <trkpt lat="46.44274" lon="4.7624">
        <ele>314</ele>
        <time>2020-09-22T11:32:53Z</time>
      </trkpt>
      <trkpt lat="46.44229" lon="4.76229">
        <ele>309</ele>
        <time>2020-09-22T11:33:04Z</time>
      </trkpt>
      <trkpt lat="46.44217" lon="4.76233">
        <ele>307</ele>
        <time>2020-09-22T11:33:07Z</time>
      </trkpt>
      <trkpt lat="46.44203" lon="4.76232">
        <ele>306</ele>
        <time>2020-09-22T11:33:10Z</time>
      </trkpt>
      <trkpt lat="46.44181" lon="4.76226">
        <ele>304</ele>
        <time>2020-09-22T11:33:15Z</time>
      </trkpt>
      <trkpt lat="46.44125" lon="4.76203">
        <ele>298</ele>
        <time>2020-09-22T11:33:29Z</time>
      </trkpt>
      <trkpt lat="46.4412" lon="4.7621">
        <ele>296</ele>
        <time>2020-09-22T11:33:30Z</time>
      </trkpt>
      <trkpt lat="46.44129" lon="4.76235">
        <ele>294</ele>
        <time>2020-09-22T11:33:35Z</time>
      </trkpt>
      <trkpt lat="46.44169" lon="4.76322">
        <ele>286</ele>
        <time>2020-09-22T11:33:52Z</time>
      </trkpt>
      <trkpt lat="46.44194" lon="4.7637">
        <ele>282</ele>
        <time>2020-09-22T11:34:02Z</time>
      </trkpt>
      <trkpt lat="46.44196" lon="4.76378">
        <ele>281</ele>
        <time>2020-09-22T11:34:03Z</time>
      </trkpt>
      <trkpt lat="46.44193" lon="4.76405">
        <ele>277</ele>
        <time>2020-09-22T11:34:07Z</time>
      </trkpt>
      <trkpt lat="46.44162" lon="4.76515">
        <ele>267</ele>
        <time>2020-09-22T11:34:26Z</time>
      </trkpt>
      <trkpt lat="46.44132" lon="4.76503">
        <ele>265</ele>
        <time>2020-09-22T11:34:34Z</time>
      </trkpt>
      <trkpt lat="46.44102" lon="4.76483">
        <ele>263</ele>
        <time>2020-09-22T11:34:41Z</time>
      </trkpt>
      <trkpt lat="46.44096" lon="4.76483">
        <ele>263</ele>
        <time>2020-09-22T11:34:43Z</time>
      </trkpt>
      <trkpt lat="46.4409" lon="4.76487">
        <ele>262</ele>
        <time>2020-09-22T11:34:44Z</time>
      </trkpt>
      <trkpt lat="46.44055" lon="4.76582">
        <ele>261</ele>
        <time>2020-09-22T11:35:02Z</time>
      </trkpt>
      <trkpt lat="46.44017" lon="4.76565">
        <ele>259</ele>
        <time>2020-09-22T11:35:11Z</time>
      </trkpt>
      <trkpt lat="46.44004" lon="4.76563">
        <ele>259</ele>
        <time>2020-09-22T11:35:14Z</time>
      </trkpt>
      <trkpt lat="46.43979" lon="4.76564">
        <ele>258</ele>
        <time>2020-09-22T11:35:20Z</time>
      </trkpt>
      <trkpt lat="46.4395" lon="4.76578">
        <ele>256</ele>
        <time>2020-09-22T11:35:27Z</time>
      </trkpt>
      <trkpt lat="46.43894" lon="4.76614">
        <ele>255</ele>
        <time>2020-09-22T11:35:41Z</time>
      </trkpt>
      <trkpt lat="46.43874" lon="4.76619">
        <ele>254</ele>
        <time>2020-09-22T11:35:46Z</time>
      </trkpt>
      <trkpt lat="46.43879" lon="4.76662">
        <ele>255</ele>
        <time>2020-09-22T11:35:53Z</time>
      </trkpt>
      <trkpt lat="46.4389" lon="4.76711">
        <ele>256</ele>
        <time>2020-09-22T11:36:01Z</time>
      </trkpt>
      <trkpt lat="46.43872" lon="4.76705">
        <ele>256</ele>
        <time>2020-09-22T11:36:06Z</time>
      </trkpt>
      <trkpt lat="46.43779" lon="4.76638">
        <ele>255</ele>
        <time>2020-09-22T11:36:30Z</time>
      </trkpt>
      <trkpt lat="46.43735" lon="4.76624">
        <ele>256</ele>
        <time>2020-09-22T11:36:40Z</time>
      </trkpt>
      <trkpt lat="46.43663" lon="4.76595">
        <ele>255</ele>
        <time>2020-09-22T11:36:58Z</time>
      </trkpt>
      <trkpt lat="46.4364" lon="4.76579">
        <ele>253</ele>
        <time>2020-09-22T11:37:04Z</time>
      </trkpt>
      <trkpt lat="46.4362" lon="4.7655">
        <ele>250</ele>
        <time>2020-09-22T11:37:10Z</time>
      </trkpt>
      <trkpt lat="46.43601" lon="4.76539">
        <ele>249</ele>
        <time>2020-09-22T11:37:15Z</time>
      </trkpt>
      <trkpt lat="46.43377" lon="4.76466">
        <ele>243</ele>
        <time>2020-09-22T11:38:09Z</time>
      </trkpt>
      <trkpt lat="46.43247" lon="4.76449">
        <ele>241</ele>
        <time>2020-09-22T11:38:39Z</time>
      </trkpt>
      <trkpt lat="46.43024" lon="4.76415">
        <ele>238</ele>
        <time>2020-09-22T11:39:32Z</time>
      </trkpt>
      <trkpt lat="46.43026" lon="4.76366">
        <ele>237</ele>
        <time>2020-09-22T11:39:40Z</time>
      </trkpt>
      <trkpt lat="46.43034" lon="4.76337">
        <ele>236</ele>
        <time>2020-09-22T11:39:45Z</time>
      </trkpt>
      <trkpt lat="46.43057" lon="4.76304">
        <ele>237</ele>
        <time>2020-09-22T11:39:52Z</time>
      </trkpt>
      <trkpt lat="46.43075" lon="4.76297">
        <ele>237</ele>
        <time>2020-09-22T11:39:57Z</time>
      </trkpt>
      <trkpt lat="46.43103" lon="4.7628">
        <ele>238</ele>
        <time>2020-09-22T11:40:04Z</time>
      </trkpt>
      <trkpt lat="46.43111" lon="4.76265">
        <ele>239</ele>
        <time>2020-09-22T11:40:07Z</time>
      </trkpt>
      <trkpt lat="46.43113" lon="4.76246">
        <ele>240</ele>
        <time>2020-09-22T11:40:10Z</time>
      </trkpt>
      <trkpt lat="46.43107" lon="4.76177">
        <ele>244</ele>
        <time>2020-09-22T11:40:21Z</time>
      </trkpt>
    </trkseg>
  </trk>
</gpx>